createdAt,value
2019-04-16T00:00:29.045Z,19.31
2019-04-16T00:01:29.019Z,19.3
2019-04-16T00:02:29.057Z,19.29
2019-04-16T00:03:29.159Z,19.31
2019-04-16T00:04:29.515Z,19.3
2019-04-16T00:05:30.200Z,19.31
2019-04-16T00:06:29.136Z,19.3
2019-04-16T00:07:29.094Z,19.32
2019-04-16T00:08:29.108Z,19.29
2019-04-16T00:09:29.199Z,19.3
2019-04-16T00:10:29.117Z,19.29
2019-04-16T00:11:28.995Z,19.29
2019-04-16T00:12:29.029Z,19.29
2019-04-16T00:13:29.171Z,19.29
2019-04-16T00:14:29.159Z,19.28
2019-04-16T00:15:28.887Z,19.28
2019-04-16T00:16:28.828Z,19.29
2019-04-16T00:17:29.002Z,19.27
2019-04-16T00:18:28.982Z,19.26
2019-04-16T00:19:28.903Z,19.27
2019-04-16T00:20:29.132Z,19.26
2019-04-16T00:21:28.963Z,19.25
2019-04-16T00:22:29.065Z,19.26
2019-04-16T00:23:28.905Z,19.26
2019-04-16T00:24:28.998Z,19.25
2019-04-16T00:25:29.003Z,19.25
2019-04-16T00:26:29.042Z,19.24
2019-04-16T00:27:29.702Z,19.25
2019-04-16T00:28:31.630Z,19.25
2019-04-16T00:29:33.968Z,19.24
2019-04-16T00:30:29.073Z,19.22
2019-04-16T00:31:29.225Z,19.24
2019-04-16T00:32:29.090Z,19.23
2019-04-16T00:33:28.975Z,19.24
2019-04-16T00:34:29.135Z,19.23
2019-04-16T00:35:28.914Z,19.24
2019-04-16T00:36:28.989Z,19.22
2019-04-16T00:37:29.041Z,19.23
2019-04-16T00:38:41.488Z,19.23
2019-04-16T00:39:28.962Z,19.21
2019-04-16T00:40:29.066Z,19.21
2019-04-16T00:41:28.997Z,19.21
2019-04-16T00:42:28.991Z,19.21
2019-04-16T00:43:28.897Z,19.22
2019-04-16T00:44:29.036Z,19.21
2019-04-16T00:45:29.073Z,19.21
2019-04-16T00:46:29.047Z,19.22
2019-04-16T00:47:29.114Z,19.18
2019-04-16T00:48:29.131Z,19.2
2019-04-16T00:49:29.167Z,19.2
2019-04-16T00:50:29.110Z,19.21
2019-04-16T00:51:29.112Z,19.2
2019-04-16T00:52:29.144Z,19.18
2019-04-16T00:53:29.139Z,19.17
2019-04-16T00:54:28.865Z,19.18
2019-04-16T00:55:28.880Z,19.18
2019-04-16T00:56:28.947Z,19.18
2019-04-16T00:57:28.901Z,19.16
2019-04-16T00:58:28.939Z,19.16
2019-04-16T00:59:29.078Z,19.16
2019-04-16T01:00:31.548Z,19.18
2019-04-16T01:01:28.964Z,19.17
2019-04-16T01:02:29.072Z,19.18
2019-04-16T01:03:28.918Z,19.17
2019-04-16T01:04:28.981Z,19.16
2019-04-16T01:05:28.999Z,19.16
2019-04-16T01:06:29.013Z,19.16
2019-04-16T01:07:29.057Z,19.16
2019-04-16T01:08:28.965Z,19.17
2019-04-16T01:09:29.195Z,19.17
2019-04-16T01:10:29.118Z,19.17
2019-04-16T01:11:29.170Z,19.15
2019-04-16T01:12:29.103Z,19.13
2019-04-16T01:13:29.336Z,19.14
2019-04-16T01:14:29.045Z,19.14
2019-04-16T01:15:32.904Z,19.14
2019-04-16T01:16:33.705Z,19.13
2019-04-16T01:17:29.046Z,19.14
2019-04-16T01:18:28.927Z,19.13
2019-04-16T01:19:28.846Z,19.15
2019-04-16T01:20:29.108Z,19.13
2019-04-16T01:21:29.086Z,19.12
2019-04-16T01:22:29.061Z,19.13
2019-04-16T01:23:28.935Z,19.14
2019-04-16T01:24:29.133Z,19.13
2019-04-16T01:25:29.042Z,19.13
2019-04-16T01:26:29.083Z,19.13
2019-04-16T01:27:29.518Z,19.12
2019-04-16T01:28:32.873Z,19.12
2019-04-16T01:29:34.846Z,19.13
2019-04-16T01:30:29.490Z,19.12
2019-04-16T01:31:29.138Z,19.13
2019-04-16T01:32:29.132Z,19.1
2019-04-16T01:33:28.861Z,19.12
2019-04-16T01:34:28.921Z,19.1
2019-04-16T01:35:28.864Z,19.13
2019-04-16T01:36:28.949Z,19.11
2019-04-16T01:37:28.884Z,19.11
2019-04-16T01:38:28.973Z,19.1
2019-04-16T01:39:28.760Z,19.1
2019-04-16T01:40:28.869Z,19.1
2019-04-16T01:41:29.002Z,19.11
2019-04-16T01:42:28.964Z,19.1
2019-04-16T01:43:28.846Z,19.1
2019-04-16T01:44:29.939Z,19.08
2019-04-16T01:45:30.578Z,19.09
2019-04-16T01:46:33.739Z,19.09
2019-04-16T01:47:29.025Z,19.09
2019-04-16T01:48:29.050Z,19.09
2019-04-16T01:49:29.022Z,19.08
2019-04-16T01:50:29.213Z,19.09
2019-04-16T01:51:29.132Z,19.08
2019-04-16T01:52:29.357Z,19.09
2019-04-16T01:53:28.963Z,19.07
2019-04-16T01:54:28.899Z,19.07
2019-04-16T01:55:28.841Z,19.07
2019-04-16T01:56:29.314Z,19.07
2019-04-16T01:57:31.507Z,19.06
2019-04-16T01:58:34.830Z,19.05
2019-04-16T01:59:28.930Z,19.07
2019-04-16T02:00:28.988Z,19.05
2019-04-16T02:01:28.983Z,19.06
2019-04-16T02:02:28.992Z,19.05
2019-04-16T02:03:28.661Z,19.03
2019-04-16T02:04:29.087Z,19.02
2019-04-16T02:05:28.898Z,19.03
2019-04-16T02:06:29.114Z,19.06
2019-04-16T02:07:28.881Z,19.03
2019-04-16T02:08:32.045Z,19.03
2019-04-16T02:09:35.887Z,19.05
2019-04-16T02:10:29.158Z,19.03
2019-04-16T02:11:29.005Z,19.02
2019-04-16T02:12:29.090Z,19.02
2019-04-16T02:13:28.841Z,19.05
2019-04-16T02:14:28.813Z,19.03
2019-04-16T02:15:28.850Z,19.01
2019-04-16T02:16:28.869Z,19.01
2019-04-16T02:17:28.907Z,19.01
2019-04-16T02:18:30.574Z,19.01
2019-04-16T02:19:33.753Z,19.02
2019-04-16T02:20:28.921Z,19.01
2019-04-16T02:21:28.914Z,19.03
2019-04-16T02:22:28.938Z,19
2019-04-16T02:23:28.927Z,19.01
2019-04-16T02:24:28.979Z,19.01
2019-04-16T02:25:28.974Z,19
2019-04-16T02:26:29.013Z,19
2019-04-16T02:27:28.884Z,18.99
2019-04-16T02:28:29.335Z,19.01
2019-04-16T02:29:30.854Z,19.01
2019-04-16T02:30:29.080Z,18.98
2019-04-16T02:31:28.895Z,19
2019-04-16T02:32:29.163Z,19
2019-04-16T02:33:29.025Z,19.01
2019-04-16T02:34:28.885Z,18.98
2019-04-16T02:35:29.357Z,18.98
2019-04-16T02:36:29.033Z,18.98
2019-04-16T02:37:37.866Z,19
2019-04-16T02:38:29.054Z,19
2019-04-16T02:39:49.933Z,18.98
2019-04-16T02:40:29.011Z,18.98
2019-04-16T02:41:29.010Z,18.98
2019-04-16T02:42:32.490Z,18.98
2019-04-16T02:43:28.895Z,18.97
2019-04-16T02:44:29.040Z,18.97
2019-04-16T02:45:29.026Z,18.97
2019-04-16T02:46:33.132Z,18.96
2019-04-16T02:47:29.354Z,18.97
2019-04-16T02:48:29.194Z,18.96
2019-04-16T02:49:29.385Z,18.96
2019-04-16T02:50:32.549Z,18.95
2019-04-16T02:51:29.245Z,18.96
2019-04-16T02:52:29.247Z,18.95
2019-04-16T02:53:28.931Z,18.96
2019-04-16T02:54:34.806Z,18.96
2019-04-16T02:55:28.913Z,18.96
2019-04-16T02:56:29.401Z,18.95
2019-04-16T02:57:29.348Z,18.96
2019-04-16T02:58:35.478Z,18.94
2019-04-16T02:59:28.833Z,18.95
2019-04-16T03:00:28.891Z,18.95
2019-04-16T03:01:28.937Z,18.96
2019-04-16T03:02:28.948Z,18.94
2019-04-16T03:03:28.870Z,18.94
2019-04-16T03:04:29.105Z,18.94
2019-04-16T03:05:30.031Z,18.94
2019-04-16T03:06:32.761Z,18.96
2019-04-16T03:07:29.017Z,18.93
2019-04-16T03:08:29.034Z,18.93
2019-04-16T03:09:29.025Z,18.94
2019-04-16T03:10:29.082Z,18.93
2019-04-16T03:11:29.126Z,18.94
2019-04-16T03:12:29.072Z,18.89
2019-04-16T03:13:28.952Z,18.94
2019-04-16T03:14:31.081Z,18.88
2019-04-16T03:15:33.964Z,18.93
2019-04-16T03:16:28.898Z,18.93
2019-04-16T03:17:28.962Z,18.92
2019-04-16T03:18:29.204Z,18.91
2019-04-16T03:19:28.942Z,18.91
2019-04-16T03:20:29.063Z,18.89
2019-04-16T03:21:28.938Z,18.92
2019-04-16T03:22:34.687Z,18.91
2019-04-16T03:23:28.694Z,18.89
2019-04-16T03:24:29.087Z,18.89
2019-04-16T03:25:29.016Z,18.89
2019-04-16T03:26:29.129Z,18.91
2019-04-16T03:27:29.007Z,18.91
2019-04-16T03:28:29.066Z,18.91
2019-04-16T03:29:31.508Z,18.88
2019-04-16T03:30:29.072Z,18.87
2019-04-16T03:31:28.869Z,18.87
2019-04-16T03:32:36.605Z,18.91
2019-04-16T03:33:29.222Z,18.89
2019-04-16T03:34:28.801Z,18.88
2019-04-16T03:35:28.962Z,18.86
2019-04-16T03:36:30.523Z,18.87
2019-04-16T03:37:33.907Z,18.88
2019-04-16T03:38:28.877Z,18.87
2019-04-16T03:39:28.954Z,18.88
2019-04-16T03:40:29.633Z,18.88
2019-04-16T03:41:28.899Z,18.87
2019-04-16T03:42:28.953Z,18.89
2019-04-16T03:43:33.238Z,18.88
2019-04-16T03:44:28.939Z,18.88
2019-04-16T03:45:28.951Z,18.88
2019-04-16T03:46:28.925Z,18.88
2019-04-16T03:47:28.864Z,18.88
2019-04-16T03:48:29.119Z,18.87
2019-04-16T03:49:28.858Z,18.91
2019-04-16T03:50:32.466Z,18.89
2019-04-16T03:51:28.894Z,18.91
2019-04-16T03:52:29.094Z,18.92
2019-04-16T03:53:28.991Z,18.92
2019-04-16T03:54:29.139Z,18.93
2019-04-16T03:55:28.916Z,18.93
2019-04-16T03:56:31.429Z,18.94
2019-04-16T03:57:34.155Z,18.96
2019-04-16T03:58:28.948Z,18.95
2019-04-16T03:59:32.279Z,18.97
2019-04-16T04:00:28.992Z,18.97
2019-04-16T04:01:29.941Z,18.99
2019-04-16T04:02:28.962Z,18.99
2019-04-16T04:03:28.901Z,19.01
2019-04-16T04:04:30.247Z,19.03
2019-04-16T04:05:28.981Z,19.03
2019-04-16T04:06:29.044Z,19.03
2019-04-16T04:07:29.062Z,19.07
2019-04-16T04:08:29.055Z,19.06
2019-04-16T04:09:29.016Z,19.09
2019-04-16T04:10:38.091Z,19.11
2019-04-16T04:11:29.090Z,19.11
2019-04-16T04:12:28.976Z,19.15
2019-04-16T04:13:29.356Z,19.14
2019-04-16T04:14:28.810Z,19.17
2019-04-16T04:15:29.139Z,19.18
2019-04-16T04:16:34.665Z,19.18
2019-04-16T04:17:28.874Z,19.21
2019-04-16T04:18:28.797Z,19.22
2019-04-16T04:19:28.813Z,19.24
2019-04-16T04:20:28.842Z,19.24
2019-04-16T04:21:28.885Z,19.27
2019-04-16T04:22:29.290Z,19.26
2019-04-16T04:23:29.652Z,19.29
2019-04-16T04:24:32.546Z,19.32
2019-04-16T04:25:28.908Z,19.31
2019-04-16T04:26:28.930Z,19.32
2019-04-16T04:27:28.934Z,19.35
2019-04-16T04:28:28.953Z,19.36
2019-04-16T04:29:29.088Z,19.38
2019-04-16T04:30:29.913Z,19.38
2019-04-16T04:31:33.274Z,19.39
2019-04-16T04:32:28.943Z,19.42
2019-04-16T04:33:29.087Z,19.41
2019-04-16T04:34:29.057Z,19.4
2019-04-16T04:35:28.859Z,19.44
2019-04-16T04:36:29.249Z,19.45
2019-04-16T04:37:32.283Z,19.45
2019-04-16T04:38:29.165Z,19.5
2019-04-16T04:39:29.339Z,19.48
2019-04-16T04:40:37.796Z,19.51
2019-04-16T04:41:28.874Z,19.53
2019-04-16T04:42:29.282Z,19.54
2019-04-16T04:43:33.037Z,19.55
2019-04-16T04:44:28.862Z,19.56
2019-04-16T04:45:29.017Z,19.57
2019-04-16T04:46:28.840Z,19.56
2019-04-16T04:47:28.982Z,19.58
2019-04-16T04:48:28.927Z,19.59
2019-04-16T04:49:31.358Z,19.6
2019-04-16T04:50:29.050Z,19.61
2019-04-16T04:51:28.961Z,19.62
2019-04-16T04:52:28.967Z,19.63
2019-04-16T04:53:28.983Z,19.62
2019-04-16T04:54:29.091Z,19.67
2019-04-16T04:55:29.125Z,19.67
2019-04-16T04:56:29.176Z,19.66
2019-04-16T04:57:32.227Z,19.68
2019-04-16T04:58:34.996Z,19.69
2019-04-16T04:59:29.079Z,19.68
2019-04-16T05:00:28.867Z,19.69
2019-04-16T05:01:28.802Z,19.72
2019-04-16T05:02:28.862Z,19.74
2019-04-16T05:03:28.829Z,19.72
2019-04-16T05:04:28.836Z,19.72
2019-04-16T05:05:29.118Z,19.73
2019-04-16T05:06:28.924Z,19.73
2019-04-16T05:07:29.562Z,19.76
2019-04-16T05:08:29.582Z,19.75
2019-04-16T05:09:36.964Z,19.76
2019-04-16T05:10:28.898Z,19.79
2019-04-16T05:11:28.933Z,19.79
2019-04-16T05:12:29.024Z,19.79
2019-04-16T05:13:28.932Z,19.81
2019-04-16T05:14:28.918Z,19.8
2019-04-16T05:15:30.406Z,19.82
2019-04-16T05:16:35.285Z,19.81
2019-04-16T05:17:28.961Z,19.82
2019-04-16T05:18:28.922Z,19.84
2019-04-16T05:19:29.105Z,19.85
2019-04-16T05:20:30.377Z,19.82
2019-04-16T05:21:28.943Z,19.84
2019-04-16T05:22:28.835Z,19.85
2019-04-16T05:23:28.993Z,19.85
2019-04-16T05:24:30.273Z,19.86
2019-04-16T05:25:34.653Z,19.86
2019-04-16T05:26:29.147Z,19.86
2019-04-16T05:27:29.991Z,19.86
2019-04-16T05:28:28.886Z,19.87
2019-04-16T05:29:28.942Z,19.87
2019-04-16T05:30:28.861Z,19.88
2019-04-16T05:31:31.491Z,19.89
2019-04-16T05:32:34.497Z,19.89
2019-04-16T05:33:28.889Z,19.88
2019-04-16T05:34:28.789Z,19.89
2019-04-16T05:35:28.942Z,19.9
2019-04-16T05:36:28.934Z,19.91
2019-04-16T05:37:29.060Z,19.91
2019-04-16T05:38:29.036Z,19.91
2019-04-16T05:39:29.107Z,19.9
2019-04-16T05:40:35.488Z,19.92
2019-04-16T05:41:29.002Z,19.92
2019-04-16T05:42:29.125Z,19.91
2019-04-16T05:43:31.120Z,19.92
2019-04-16T05:44:34.403Z,19.92
2019-04-16T05:45:28.834Z,19.94
2019-04-16T05:46:28.836Z,19.95
2019-04-16T05:47:28.815Z,19.95
2019-04-16T05:48:29.195Z,19.95
2019-04-16T05:49:28.808Z,19.94
2019-04-16T05:50:30.188Z,19.95
2019-04-16T05:51:32.311Z,19.96
2019-04-16T05:52:28.826Z,19.98
2019-04-16T05:53:29.062Z,19.98
2019-04-16T05:54:28.705Z,19.96
2019-04-16T05:55:28.874Z,19.97
2019-04-16T05:56:29.007Z,19.97
2019-04-16T05:57:28.897Z,19.98
2019-04-16T05:58:31.751Z,19.97
2019-04-16T05:59:34.683Z,19.99
2019-04-16T06:00:29.090Z,19.99
2019-04-16T06:01:28.923Z,20
2019-04-16T06:02:28.772Z,19.99
2019-04-16T06:03:28.991Z,19.97
2019-04-16T06:04:28.945Z,19.89
2019-04-16T06:05:29.148Z,19.85
2019-04-16T06:06:32.730Z,19.79
2019-04-16T06:07:30.416Z,19.74
2019-04-16T06:08:28.888Z,19.68
2019-04-16T06:09:29.146Z,19.6
2019-04-16T06:10:29.143Z,19.53
2019-04-16T06:11:36.815Z,19.45
2019-04-16T06:12:28.914Z,19.41
2019-04-16T06:13:28.954Z,19.35
2019-04-16T06:14:28.870Z,19.25
2019-04-16T06:15:29.061Z,19.22
2019-04-16T06:16:31.476Z,19.17
2019-04-16T06:17:33.047Z,19.16
2019-04-16T06:18:28.636Z,19.2
2019-04-16T06:19:28.928Z,19.21
2019-04-16T06:20:29.121Z,19.2
2019-04-16T06:21:29.020Z,19.23
2019-04-16T06:22:30.484Z,19.26
2019-04-16T06:23:32.945Z,19.29
2019-04-16T06:24:29.062Z,19.29
2019-04-16T06:25:29.061Z,19.31
2019-04-16T06:26:29.016Z,19.35
2019-04-16T06:27:29.017Z,19.36
2019-04-16T06:28:29.137Z,19.37
2019-04-16T06:29:29.660Z,19.39
2019-04-16T06:30:34.340Z,19.41
2019-04-16T06:31:29.122Z,19.4
2019-04-16T06:32:29.149Z,19.42
2019-04-16T06:33:28.782Z,19.45
2019-04-16T06:34:28.831Z,19.45
2019-04-16T06:35:44.074Z,19.46
2019-04-16T06:36:28.864Z,19.46
2019-04-16T06:37:28.827Z,19.48
2019-04-16T06:38:29.015Z,19.5
2019-04-16T06:39:30.826Z,19.5
2019-04-16T06:40:33.067Z,19.51
2019-04-16T06:41:48.634Z,19.52
2019-04-16T06:42:28.810Z,19.52
2019-04-16T06:43:28.903Z,19.51
2019-04-16T06:44:35.317Z,19.53
2019-04-16T06:45:29.014Z,19.53
2019-04-16T06:46:28.710Z,19.55
2019-04-16T06:47:28.947Z,19.54
2019-04-16T06:48:29.074Z,19.54
2019-04-16T06:49:29.041Z,19.56
2019-04-16T06:50:40.914Z,19.54
2019-04-16T06:51:32.093Z,19.56
2019-04-16T06:52:28.944Z,19.55
2019-04-16T06:53:31.116Z,19.56
2019-04-16T06:54:33.373Z,19.56
2019-04-16T06:55:28.945Z,19.57
2019-04-16T06:56:28.881Z,19.55
2019-04-16T06:57:28.880Z,19.55
2019-04-16T06:58:28.765Z,19.55
2019-04-16T06:59:31.170Z,19.55
2019-04-16T07:00:54.932Z,19.57
2019-04-16T07:01:28.990Z,19.56
2019-04-16T07:02:28.828Z,19.56
2019-04-16T07:03:28.916Z,19.55
2019-04-16T07:04:31.093Z,19.56
2019-04-16T07:05:33.453Z,19.54
2019-04-16T07:06:29.007Z,19.55
2019-04-16T07:07:47.048Z,19.55
2019-04-16T07:08:42.117Z,19.53
2019-04-16T07:09:46.084Z,19.54
2019-04-16T07:10:45.041Z,19.54
2019-04-16T07:11:28.997Z,19.52
2019-04-16T07:12:29.230Z,19.55
2019-04-16T07:13:28.997Z,19.55
2019-04-16T07:14:29.412Z,19.52
2019-04-16T07:15:29.542Z,19.52
2019-04-16T07:16:29.397Z,19.53
2019-04-16T07:17:34.735Z,19.51
2019-04-16T07:18:28.796Z,19.52
2019-04-16T07:19:28.785Z,19.52
2019-04-16T07:20:29.604Z,19.52
2019-04-16T07:21:28.896Z,19.51
2019-04-16T07:22:28.871Z,19.51
2019-04-16T07:23:29.257Z,19.5
2019-04-16T07:24:38.995Z,19.5
2019-04-16T07:25:42.835Z,19.5
2019-04-16T07:26:29.324Z,19.5
2019-04-16T07:27:29.373Z,19.5
2019-04-16T07:28:29.596Z,19.48
2019-04-16T07:29:34.443Z,19.5
2019-04-16T07:30:29.601Z,19.47
2019-04-16T07:32:29.593Z,19.47
2019-04-16T07:33:29.046Z,19.51
2019-04-16T07:34:28.857Z,19.48
2019-04-16T07:35:29.272Z,19.45
2019-04-16T07:36:29.139Z,19.44
2019-04-16T07:37:34.002Z,19.46
2019-04-16T07:38:28.756Z,19.45
2019-04-16T07:39:30.252Z,19.47
2019-04-16T07:40:28.799Z,19.46
2019-04-16T07:41:28.911Z,19.43
2019-04-16T07:42:28.823Z,19.43
2019-04-16T07:43:32.201Z,19.45
2019-04-16T07:44:28.971Z,19.43
2019-04-16T07:45:28.908Z,19.44
2019-04-16T07:46:28.933Z,19.44
2019-04-16T07:47:28.840Z,19.43
2019-04-16T07:48:28.959Z,19.42
2019-04-16T07:49:28.900Z,19.41
2019-04-16T07:50:33.438Z,19.42
2019-04-16T07:51:28.930Z,19.42
2019-04-16T07:52:28.937Z,19.42
2019-04-16T07:53:29.076Z,19.4
2019-04-16T07:54:28.901Z,19.42
2019-04-16T07:55:28.934Z,19.4
2019-04-16T07:56:29.020Z,19.41
2019-04-16T07:57:29.310Z,19.38
2019-04-16T07:58:29.218Z,19.39
2019-04-16T07:59:33.233Z,19.38
2019-04-16T08:00:28.744Z,19.38
2019-04-16T08:01:28.776Z,19.38
2019-04-16T08:02:28.840Z,19.37
2019-04-16T08:03:28.789Z,19.37
2019-04-16T08:04:36.597Z,19.37
2019-04-16T08:05:28.929Z,19.36
2019-04-16T08:06:28.778Z,19.36
2019-04-16T08:07:29.241Z,19.36
2019-04-16T08:08:28.947Z,19.33
2019-04-16T08:09:33.889Z,19.32
2019-04-16T08:10:28.817Z,19.35
2019-04-16T08:11:28.865Z,19.32
2019-04-16T08:12:31.314Z,19.32
2019-04-16T08:13:34.612Z,19.36
2019-04-16T08:14:28.778Z,19.33
2019-04-16T08:15:28.925Z,19.32
2019-04-16T08:16:28.930Z,19.32
2019-04-16T08:17:28.958Z,19.32
2019-04-16T08:18:28.745Z,19.32
2019-04-16T08:19:37.931Z,19.32
2019-04-16T08:20:28.972Z,19.32
2019-04-16T08:21:28.975Z,19.32
2019-04-16T08:22:30.133Z,19.3
2019-04-16T08:23:28.745Z,19.31
2019-04-16T08:24:28.734Z,19.32
2019-04-16T08:25:35.109Z,19.3
2019-04-16T08:26:28.825Z,19.28
2019-04-16T08:27:28.783Z,19.31
2019-04-16T08:28:28.901Z,19.29
2019-04-16T08:29:28.889Z,19.3
2019-04-16T08:30:39.740Z,19.29
2019-04-16T08:31:28.772Z,19.31
2019-04-16T08:32:28.989Z,19.3
2019-04-16T08:33:29.616Z,19.27
2019-04-16T08:34:29.179Z,19.29
2019-04-16T08:35:28.924Z,19.29
2019-04-16T08:36:28.962Z,19.29
2019-04-16T08:37:28.987Z,19.28
2019-04-16T08:38:35.097Z,19.28
2019-04-16T08:39:29.083Z,19.26
2019-04-16T08:40:29.212Z,19.26
2019-04-16T08:41:29.120Z,19.25
2019-04-16T08:42:45.223Z,19.27
2019-04-16T08:43:30.691Z,19.28
2019-04-16T08:44:28.770Z,19.27
2019-04-16T08:45:28.805Z,19.25
2019-04-16T08:46:28.736Z,19.26
2019-04-16T08:47:28.643Z,19.25
2019-04-16T08:48:28.756Z,19.25
2019-04-16T08:49:28.901Z,19.26
2019-04-16T08:50:28.783Z,19.25
2019-04-16T08:51:38.032Z,19.25
2019-04-16T08:52:28.787Z,19.24
2019-04-16T08:53:28.808Z,19.24
2019-04-16T08:54:28.817Z,19.22
2019-04-16T08:55:28.958Z,19.25
2019-04-16T08:56:28.836Z,19.22
2019-04-16T08:57:33.043Z,19.22
2019-04-16T08:58:28.621Z,19.24
2019-04-16T08:59:28.975Z,19.22
2019-04-16T09:00:28.966Z,19.22
2019-04-16T09:01:28.903Z,19.23
2019-04-16T09:02:29.098Z,19.21
2019-04-16T09:03:30.933Z,19.23
2019-04-16T09:04:35.527Z,19.22
2019-04-16T09:05:28.971Z,19.2
2019-04-16T09:06:29.144Z,19.18
2019-04-16T09:07:28.845Z,19.21
2019-04-16T09:08:28.756Z,19.21
2019-04-16T09:09:28.791Z,19.21
2019-04-16T09:10:31.393Z,19.2
2019-04-16T09:11:28.885Z,19.2
2019-04-16T09:12:29.483Z,19.18
2019-04-16T09:13:28.780Z,19.2
2019-04-16T09:14:28.808Z,19.17
2019-04-16T09:15:28.881Z,19.2
2019-04-16T09:16:28.857Z,19.2
2019-04-16T09:17:28.937Z,19.2
2019-04-16T09:18:28.820Z,19.17
2019-04-16T09:19:28.900Z,19.18
2019-04-16T09:20:28.936Z,19.18
2019-04-16T09:21:28.889Z,19.17
2019-04-16T09:22:28.912Z,19.18
2019-04-16T09:23:29.000Z,19.17
2019-04-16T09:24:29.220Z,19.17
2019-04-16T09:25:28.907Z,19.16
2019-04-16T09:26:29.349Z,19.17
2019-04-16T09:27:34.761Z,19.17
2019-04-16T09:28:32.332Z,19.17
2019-04-16T09:29:28.682Z,19.17
2019-04-16T09:30:28.690Z,19.18
2019-04-16T09:31:28.726Z,19.16
2019-04-16T09:32:28.743Z,19.14
2019-04-16T09:33:34.600Z,19.16
2019-04-16T09:34:28.812Z,19.14
2019-04-16T09:35:28.741Z,19.17
2019-04-16T09:36:28.784Z,19.15
2019-04-16T09:37:29.571Z,19.13
2019-04-16T09:38:28.785Z,19.14
2019-04-16T09:39:29.047Z,19.15
2019-04-16T09:40:28.783Z,19.16
2019-04-16T09:41:28.815Z,19.14
2019-04-16T09:42:28.777Z,19.13
2019-04-16T09:43:28.799Z,19.13
2019-04-16T09:44:36.005Z,19.13
2019-04-16T09:45:29.336Z,19.15
2019-04-16T09:46:52.714Z,19.14
2019-04-16T09:47:33.590Z,19.12
2019-04-16T09:48:35.710Z,19.14
2019-04-16T09:49:29.005Z,19.15
2019-04-16T09:50:28.921Z,19.15
2019-04-16T09:51:29.028Z,19.16
2019-04-16T09:52:28.825Z,19.12
2019-04-16T09:53:41.067Z,19.13
2019-04-16T09:54:28.759Z,19.13
2019-04-16T09:55:28.761Z,19.13
2019-04-16T09:56:30.865Z,19.12
2019-04-16T09:57:32.640Z,19.11
2019-04-16T09:58:29.048Z,19.11
2019-04-16T09:59:28.887Z,19.12
2019-04-16T10:00:28.979Z,19.11
2019-04-16T10:01:28.917Z,19.11
2019-04-16T10:02:28.884Z,19.11
2019-04-16T10:03:29.242Z,19.1
2019-04-16T10:04:28.973Z,19.11
2019-04-16T10:05:30.371Z,19.11
2019-04-16T10:06:29.216Z,19.09
2019-04-16T10:07:30.889Z,19.12
2019-04-16T10:08:29.866Z,19.1
2019-04-16T10:09:29.245Z,19.11
2019-04-16T10:10:29.436Z,19.1
2019-04-16T10:11:29.105Z,19.09
2019-04-16T10:12:28.782Z,19.1
2019-04-16T10:13:36.661Z,19.1
2019-04-16T10:14:28.646Z,19.09
2019-04-16T10:15:29.008Z,19.09
2019-04-16T10:16:28.795Z,19.1
2019-04-16T10:17:29.069Z,19.09
2019-04-16T10:18:28.833Z,19.09
2019-04-16T10:19:28.830Z,19.09
2019-04-16T10:20:29.006Z,19.09
2019-04-16T10:21:29.629Z,19.09
2019-04-16T10:22:28.796Z,19.1
2019-04-16T10:23:29.022Z,19.08
2019-04-16T10:24:28.818Z,19.1
2019-04-16T10:25:28.905Z,19.08
2019-04-16T10:26:29.020Z,19.06
2019-04-16T10:27:32.912Z,19.09
2019-04-16T10:28:29.361Z,19.09
2019-04-16T10:29:29.264Z,19.08
2019-04-16T10:30:30.805Z,19.07
2019-04-16T10:31:28.973Z,19.05
2019-04-16T10:32:28.965Z,19.06
2019-04-16T10:33:28.995Z,19.06
2019-04-16T10:34:28.828Z,19.06
2019-04-16T10:35:28.780Z,19.06
2019-04-16T10:36:28.813Z,19.05
2019-04-16T10:37:28.877Z,19.06
2019-04-16T10:38:28.747Z,19.06
2019-04-16T10:39:28.686Z,19.06
2019-04-16T10:40:29.229Z,19.05
2019-04-16T10:41:29.221Z,19.03
2019-04-16T10:42:28.765Z,19.06
2019-04-16T10:43:29.081Z,19.05
2019-04-16T10:44:29.291Z,19.05
2019-04-16T10:45:28.903Z,19.03
2019-04-16T10:46:28.821Z,19.05
2019-04-16T10:47:28.935Z,19.02
2019-04-16T10:48:29.013Z,19.03
2019-04-16T10:49:28.953Z,19.05
2019-04-16T10:50:28.964Z,19.05
2019-04-16T10:51:28.988Z,19.03
2019-04-16T10:52:29.020Z,19.01
2019-04-16T10:53:28.917Z,19.02
2019-04-16T10:54:28.993Z,19.05
2019-04-16T10:55:29.153Z,19.05
2019-04-16T10:56:28.775Z,19.01
2019-04-16T10:57:28.683Z,19
2019-04-16T10:58:28.805Z,19.03
2019-04-16T10:59:28.662Z,19
2019-04-16T11:00:28.958Z,19.02
2019-04-16T11:01:35.514Z,19.03
2019-04-16T11:02:29.379Z,19
2019-04-16T11:03:35.552Z,19
2019-04-16T11:04:28.815Z,19.01
2019-04-16T11:05:28.825Z,19
2019-04-16T11:06:28.798Z,19
2019-04-16T11:07:28.730Z,18.99
2019-04-16T11:08:28.863Z,18.99
2019-04-16T11:09:29.011Z,19
2019-04-16T11:10:29.014Z,19.01
2019-04-16T11:11:28.922Z,19
2019-04-16T11:12:29.076Z,18.99
2019-04-16T11:13:29.216Z,18.99
2019-04-16T11:14:28.895Z,18.99
2019-04-16T11:15:29.117Z,18.98
2019-04-16T11:16:29.289Z,18.98
2019-04-16T11:17:29.241Z,18.99
2019-04-16T11:18:28.955Z,18.98
2019-04-16T11:19:28.822Z,18.98
2019-04-16T11:20:28.984Z,19
2019-04-16T11:21:28.953Z,18.98
2019-04-16T11:22:28.780Z,18.98
2019-04-16T11:23:29.099Z,18.98
2019-04-16T11:24:29.939Z,18.98
2019-04-16T11:25:28.789Z,18.98
2019-04-16T11:26:28.742Z,18.97
2019-04-16T11:27:28.798Z,18.98
2019-04-16T11:28:29.073Z,18.97
2019-04-16T11:29:28.964Z,18.99
2019-04-16T11:30:28.711Z,18.98
2019-04-16T11:31:29.027Z,18.97
2019-04-16T11:32:29.070Z,18.98
2019-04-16T11:33:29.089Z,18.97
2019-04-16T11:34:29.068Z,18.98
2019-04-16T11:35:29.315Z,18.98
2019-04-16T11:36:32.076Z,18.97
2019-04-16T11:37:36.896Z,18.95
2019-04-16T11:38:28.867Z,18.97
2019-04-16T11:39:29.246Z,18.97
2019-04-16T11:40:28.766Z,18.94
2019-04-16T11:41:28.988Z,18.96
2019-04-16T11:42:28.827Z,18.96
2019-04-16T11:43:28.796Z,18.95
2019-04-16T11:44:29.117Z,18.94
2019-04-16T11:45:28.970Z,18.97
2019-04-16T11:46:28.873Z,18.96
2019-04-16T11:47:35.123Z,18.97
2019-04-16T11:48:28.831Z,18.97
2019-04-16T11:49:29.149Z,18.97
2019-04-16T11:50:28.922Z,18.94
2019-04-16T11:51:29.215Z,18.98
2019-04-16T11:52:29.137Z,18.96
2019-04-16T11:53:28.846Z,18.96
2019-04-16T11:54:28.850Z,18.95
2019-04-16T11:55:28.840Z,18.96
2019-04-16T11:56:29.135Z,18.94
2019-04-16T11:57:34.540Z,18.94
2019-04-16T11:58:28.936Z,18.95
2019-04-16T11:59:28.918Z,18.97
2019-04-16T12:00:29.122Z,18.96
2019-04-16T12:01:29.061Z,18.97
2019-04-16T12:02:29.159Z,18.98
2019-04-16T12:03:29.206Z,18.95
2019-04-16T12:04:29.114Z,18.95
2019-04-16T12:05:28.824Z,18.95
2019-04-16T12:06:29.384Z,18.96
2019-04-16T12:07:28.937Z,18.94
2019-04-16T12:08:28.877Z,18.94
2019-04-16T12:09:29.146Z,18.94
2019-04-16T12:10:28.962Z,18.94
2019-04-16T12:11:29.037Z,18.94
2019-04-16T12:12:29.104Z,18.94
2019-04-16T12:13:29.115Z,18.94
2019-04-16T12:14:35.418Z,18.95
2019-04-16T12:15:28.880Z,18.96
2019-04-16T12:16:28.926Z,18.94
2019-04-16T12:17:29.112Z,18.94
2019-04-16T12:18:32.773Z,18.94
2019-04-16T12:19:29.248Z,18.94
2019-04-16T12:20:29.346Z,18.94
2019-04-16T12:21:29.106Z,18.94
2019-04-16T12:22:29.013Z,18.94
2019-04-16T12:23:29.058Z,18.95
2019-04-16T12:24:29.155Z,18.94
2019-04-16T12:25:30.365Z,18.95
2019-04-16T12:26:28.873Z,18.93
2019-04-16T12:27:28.779Z,18.94
2019-04-16T12:28:29.069Z,18.93
2019-04-16T12:29:28.867Z,18.92
2019-04-16T12:30:28.938Z,18.93
2019-04-16T12:31:28.971Z,18.93
2019-04-16T12:32:29.059Z,18.93
2019-04-16T12:33:28.994Z,18.94
2019-04-16T12:34:29.073Z,18.94
2019-04-16T12:35:35.974Z,18.91
2019-04-16T12:36:29.114Z,18.92
2019-04-16T12:37:29.018Z,18.93
2019-04-16T12:38:28.890Z,18.91
2019-04-16T12:39:28.940Z,18.94
2019-04-16T12:40:29.310Z,18.91
2019-04-16T12:41:29.164Z,18.92
2019-04-16T12:42:28.845Z,18.92
2019-04-16T12:43:29.048Z,18.92
2019-04-16T12:44:46.369Z,18.91
2019-04-16T12:45:29.072Z,18.91
2019-04-16T12:46:29.106Z,18.92
2019-04-16T12:47:29.041Z,18.92
2019-04-16T12:48:29.007Z,18.92
2019-04-16T12:49:29.242Z,18.92
2019-04-16T12:50:29.616Z,18.92
2019-04-16T12:51:29.886Z,18.91
2019-04-16T12:52:28.771Z,18.93
2019-04-16T12:53:28.892Z,18.91
2019-04-16T12:54:29.069Z,18.92
2019-04-16T12:55:33.098Z,18.91
2019-04-16T12:56:28.866Z,18.89
2019-04-16T12:57:28.891Z,18.91